sensor_id;sensor_type;location;lat;lon;timestamp;pressure;altitude;pressure_sealevel;temperature;humidity
76132;BME280;64877;50.994;13.650;2023-01-23T00:01:44;101234.41;;;0.99;88.10
76132;BME280;64877;50.994;13.650;2023-01-23T00:04:12;101239.72;;;0.99;88.30
76132;BME280;64877;50.994;13.650;2023-01-23T00:06:38;101237.94;;;1.01;88.20
76132;BME280;64877;50.994;13.650;2023-01-23T00:09:03;101236.19;;;1.00;88.73
76132;BME280;64877;50.994;13.650;2023-01-23T00:11:29;101244.16;;;1.00;88.36
76132;BME280;64877;50.994;13.650;2023-01-23T00:13:56;101253.97;;;0.95;88.67
76132;BME280;64877;50.994;13.650;2023-01-23T00:16:23;101245.06;;;0.97;88.66
76132;BME280;64877;50.994;13.650;2023-01-23T00:18:50;101243.25;;;0.99;88.57
76132;BME280;64877;50.994;13.650;2023-01-23T00:21:18;101247.75;;;0.94;88.63
76132;BME280;64877;50.994;13.650;2023-01-23T00:23:46;101252.16;;;0.97;89.24
76132;BME280;64877;50.994;13.650;2023-01-23T00:26:15;101250.41;;;0.96;89.06
76132;BME280;64877;50.994;13.650;2023-01-23T00:28:42;101251.25;;;0.98;88.53
76132;BME280;64877;50.994;13.650;2023-01-23T00:31:10;101245.91;;;1.01;89.10
76132;BME280;64877;50.994;13.650;2023-01-23T00:33:40;101259.25;;;0.98;88.86
76132;BME280;64877;50.994;13.650;2023-01-23T00:36:06;101256.63;;;0.96;88.80
76132;BME280;64877;50.994;13.650;2023-01-23T00:38:32;101255.72;;;0.94;89.11
76132;BME280;64877;50.994;13.650;2023-01-23T00:40:57;101246.84;;;0.97;89.24
76132;BME280;64877;50.994;13.650;2023-01-23T00:43:23;101248.56;;;0.99;89.28
76132;BME280;64877;50.994;13.650;2023-01-23T00:45:49;101250.31;;;1.05;89.15
76132;BME280;64877;50.994;13.650;2023-01-23T00:48:15;101250.25;;;1.08;88.74
76132;BME280;64877;50.994;13.650;2023-01-23T00:50:40;101253.72;;;1.15;88.94
76132;BME280;64877;50.994;13.650;2023-01-23T00:53:06;101253.72;;;1.13;88.76
76132;BME280;64877;50.994;13.650;2023-01-23T00:55:31;101250.16;;;1.14;88.57
76132;BME280;64877;50.994;13.650;2023-01-23T00:57:57;101264.44;;;1.10;88.40
76132;BME280;64877;50.994;13.650;2023-01-23T01:00:22;101260.84;;;1.11;88.68
76132;BME280;64877;50.994;13.650;2023-01-23T01:02:47;101259.13;;;1.07;88.79
76132;BME280;64877;50.994;13.650;2023-01-23T01:05:13;101266.22;;;1.07;89.32
76132;BME280;64877;50.994;13.650;2023-01-23T01:07:39;101268.94;;;1.05;88.79
76132;BME280;64877;50.994;13.650;2023-01-23T01:10:05;101271.59;;;1.02;88.88
76132;BME280;64877;50.994;13.650;2023-01-23T01:12:31;101278.75;;;1.00;88.72
76132;BME280;64877;50.994;13.650;2023-01-23T01:14:56;101282.28;;;0.99;88.92
76132;BME280;64877;50.994;13.650;2023-01-23T01:17:22;101282.28;;;0.99;89.55
76132;BME280;64877;50.994;13.650;2023-01-23T01:19:47;101275.13;;;1.06;89.52
76132;BME280;64877;50.994;13.650;2023-01-23T01:22:12;101284.84;;;1.07;89.16
76132;BME280;64877;50.994;13.650;2023-01-23T01:24:40;101282.22;;;1.05;88.57
76132;BME280;64877;50.994;13.650;2023-01-23T01:27:06;101287.41;;;1.14;89.82
76132;BME280;64877;50.994;13.650;2023-01-23T01:29:32;101286.50;;;1.17;88.91
76132;BME280;64877;50.994;13.650;2023-01-23T01:31:58;101284.63;;;1.23;88.54
76132;BME280;64877;50.994;13.650;2023-01-23T01:34:23;101287.28;;;1.23;88.02
76132;BME280;64877;50.994;13.650;2023-01-23T01:36:48;101293.44;;;1.28;88.05
76132;BME280;64877;50.994;13.650;2023-01-23T01:39:15;101301.50;;;1.22;88.40
76132;BME280;64877;50.994;13.650;2023-01-23T01:41:41;101301.34;;;1.35;88.65
76132;BME280;64877;50.994;13.650;2023-01-23T01:44:18;101303.91;;;1.42;87.93
76132;BME280;64877;50.994;13.650;2023-01-23T01:46:44;101303.00;;;1.45;87.98
76132;BME280;64877;50.994;13.650;2023-01-23T01:49:18;101309.13;;;1.50;87.56
76132;BME280;64877;50.994;13.650;2023-01-23T01:51:59;101302.81;;;1.57;87.30
76132;BME280;64877;50.994;13.650;2023-01-23T01:59:49;101325.97;;;1.49;87.39
76132;BME280;64877;50.994;13.650;2023-01-23T02:02:44;101319.81;;;1.47;86.93
76132;BME280;64877;50.994;13.650;2023-01-23T02:05:16;101322.63;;;1.36;87.84
76132;BME280;64877;50.994;13.650;2023-01-23T02:07:46;101326.19;;;1.34;88.03
76132;BME280;64877;50.994;13.650;2023-01-23T02:10:12;101332.47;;;1.29;87.73
76132;BME280;64877;50.994;13.650;2023-01-23T02:12:40;101333.41;;;1.25;88.13
76132;BME280;64877;50.994;13.650;2023-01-23T02:15:09;101332.56;;;1.20;87.83
76132;BME280;64877;50.994;13.650;2023-01-23T02:17:34;101336.13;;;1.21;88.09
76132;BME280;64877;50.994;13.650;2023-01-23T02:20:18;101337.00;;;1.21;87.97
76132;BME280;64877;50.994;13.650;2023-01-23T02:22:56;101332.53;;;1.23;88.25
76132;BME280;64877;50.994;13.650;2023-01-23T02:27:56;101340.50;;;1.23;88.22
76132;BME280;64877;50.994;13.650;2023-01-23T02:30:22;101334.34;;;1.21;88.30
76132;BME280;64877;50.994;13.650;2023-01-23T02:32:48;101338.72;;;1.24;88.21
76132;BME280;64877;50.994;13.650;2023-01-23T02:35:21;101338.78;;;1.19;88.33
76132;BME280;64877;50.994;13.650;2023-01-23T02:37:51;101343.16;;;1.23;88.23
76132;BME280;64877;50.994;13.650;2023-01-23T02:40:18;101343.16;;;1.25;88.11
76132;BME280;64877;50.994;13.650;2023-01-23T02:42:48;101348.50;;;1.25;88.25
76132;BME280;64877;50.994;13.650;2023-01-23T02:45:14;101349.38;;;1.25;88.47
76132;BME280;64877;50.994;13.650;2023-01-23T02:47:39;101355.53;;;1.27;88.63
76132;BME280;64877;50.994;13.650;2023-01-23T02:50:05;101352.00;;;1.27;88.39
76132;BME280;64877;50.994;13.650;2023-01-23T02:52:30;101355.50;;;1.29;88.79
76132;BME280;64877;50.994;13.650;2023-01-23T02:54:58;101349.38;;;1.25;88.43
76132;BME280;64877;50.994;13.650;2023-01-23T02:57:23;101353.75;;;1.29;88.09
76132;BME280;64877;50.994;13.650;2023-01-23T02:59:49;101344.03;;;1.24;87.74
76132;BME280;64877;50.994;13.650;2023-01-23T03:02:32;101342.28;;;1.24;88.21
76132;BME280;64877;50.994;13.650;2023-01-23T03:04:58;101345.81;;;1.25;87.87
76132;BME280;64877;50.994;13.650;2023-01-23T03:07:23;101341.38;;;1.24;87.77
76132;BME280;64877;50.994;13.650;2023-01-23T03:09:49;101338.72;;;1.25;87.85
76132;BME280;64877;50.994;13.650;2023-01-23T03:12:15;101331.63;;;1.26;88.51
76132;BME280;64877;50.994;13.650;2023-01-23T03:14:40;101328.97;;;1.24;88.67
76132;BME280;64877;50.994;13.650;2023-01-23T03:17:06;101313.94;;;1.20;88.20
76132;BME280;64877;50.994;13.650;2023-01-23T03:19:32;101318.44;;;1.15;88.58
76132;BME280;64877;50.994;13.650;2023-01-23T03:21:57;101315.72;;;1.18;87.80
76132;BME280;64877;50.994;13.650;2023-01-23T03:24:23;101322.81;;;1.19;88.56
76132;BME280;64877;50.994;13.650;2023-01-23T03:26:49;101321.16;;;1.11;88.62
76132;BME280;64877;50.994;13.650;2023-01-23T03:29:21;101313.16;;;1.12;88.71
76132;BME280;64877;50.994;13.650;2023-01-23T03:32:06;101318.50;;;1.11;88.83
76132;BME280;64877;50.994;13.650;2023-01-23T03:34:32;101324.63;;;1.17;88.37
76132;BME280;64877;50.994;13.650;2023-01-23T03:36:57;101335.25;;;1.17;88.06
76132;BME280;64877;50.994;13.650;2023-01-23T03:39:24;101340.66;;;1.11;88.75
76132;BME280;64877;50.994;13.650;2023-01-23T03:42:09;101341.53;;;1.12;88.48
76132;BME280;64877;50.994;13.650;2023-01-23T03:44:34;101339.72;;;1.17;88.71
76132;BME280;64877;50.994;13.650;2023-01-23T03:46:59;101341.53;;;1.15;88.26
76132;BME280;64877;50.994;13.650;2023-01-23T03:49:25;101340.56;;;1.20;88.28
76132;BME280;64877;50.994;13.650;2023-01-23T03:51:51;101354.69;;;1.25;88.63
76132;BME280;64877;50.994;13.650;2023-01-23T03:54:16;101355.59;;;1.23;88.32
76132;BME280;64877;50.994;13.650;2023-01-23T03:56:42;101351.19;;;1.20;88.92
76132;BME280;64877;50.994;13.650;2023-01-23T03:59:08;101360.91;;;1.23;88.17
76132;BME280;64877;50.994;13.650;2023-01-23T04:01:33;101364.47;;;1.25;88.03
76132;BME280;64877;50.994;13.650;2023-01-23T04:03:59;101364.41;;;1.29;87.40
76132;BME280;64877;50.994;13.650;2023-01-23T04:06:25;101360.84;;;1.27;88.46
76132;BME280;64877;50.994;13.650;2023-01-23T04:08:50;101360.91;;;1.24;87.89
76132;BME280;64877;50.994;13.650;2023-01-23T04:11:16;101370.56;;;1.32;87.87
76132;BME280;64877;50.994;13.650;2023-01-23T04:13:41;101376.78;;;1.32;87.99
76132;BME280;64877;50.994;13.650;2023-01-23T04:16:07;101371.47;;;1.31;87.67
76132;BME280;64877;50.994;13.650;2023-01-23T04:18:32;101368.91;;;1.21;87.11
76132;BME280;64877;50.994;13.650;2023-01-23T04:20:58;101376.03;;;1.19;88.12
76132;BME280;64877;50.994;13.650;2023-01-23T04:23:24;101376.91;;;1.21;88.03
76132;BME280;64877;50.994;13.650;2023-01-23T04:25:50;101380.38;;;1.28;88.15
76132;BME280;64877;50.994;13.650;2023-01-23T04:28:16;101378.59;;;1.28;88.13
76132;BME280;64877;50.994;13.650;2023-01-23T04:30:42;101381.25;;;1.28;87.70
76132;BME280;64877;50.994;13.650;2023-01-23T04:33:07;101375.03;;;1.31;87.49
76132;BME280;64877;50.994;13.650;2023-01-23T04:35:33;101384.81;;;1.27;87.85
76132;BME280;64877;50.994;13.650;2023-01-23T04:37:59;101378.59;;;1.30;87.65
76132;BME280;64877;50.994;13.650;2023-01-23T04:40:24;101377.72;;;1.29;87.55
76132;BME280;64877;50.994;13.650;2023-01-23T04:42:50;101383.06;;;1.23;87.49
76132;BME280;64877;50.994;13.650;2023-01-23T04:45:15;101384.00;;;1.19;87.70
76132;BME280;64877;50.994;13.650;2023-01-23T04:47:41;101396.44;;;1.19;88.02
76132;BME280;64877;50.994;13.650;2023-01-23T04:50:07;101396.44;;;1.19;87.57
76132;BME280;64877;50.994;13.650;2023-01-23T04:52:32;101403.56;;;1.17;87.86
76132;BME280;64877;50.994;13.650;2023-01-23T04:54:57;101399.13;;;1.17;88.19
76132;BME280;64877;50.994;13.650;2023-01-23T04:57:23;101394.66;;;1.18;87.69
76132;BME280;64877;50.994;13.650;2023-01-23T04:59:48;101393.78;;;1.17;88.04
76132;BME280;64877;50.994;13.650;2023-01-23T05:02:14;101395.59;;;1.15;88.56
76132;BME280;64877;50.994;13.650;2023-01-23T05:04:39;101390.22;;;1.18;87.62
76132;BME280;64877;50.994;13.650;2023-01-23T05:07:05;101397.31;;;1.19;88.53
76132;BME280;64877;50.994;13.650;2023-01-23T05:09:30;101397.25;;;1.25;87.89
76132;BME280;64877;50.994;13.650;2023-01-23T05:11:55;101389.31;;;1.19;87.82
76132;BME280;64877;50.994;13.650;2023-01-23T05:14:21;101398.25;;;1.15;88.26
76132;BME280;64877;50.994;13.650;2023-01-23T05:16:48;101405.38;;;1.13;88.30
76132;BME280;64877;50.994;13.650;2023-01-23T05:19:14;101406.25;;;1.15;88.37
76132;BME280;64877;50.994;13.650;2023-01-23T05:21:39;101403.63;;;1.11;88.54
76132;BME280;64877;50.994;13.650;2023-01-23T05:24:05;101402.69;;;1.13;88.17
76132;BME280;64877;50.994;13.650;2023-01-23T05:26:31;101406.25;;;1.15;88.24
76132;BME280;64877;50.994;13.650;2023-01-23T05:28:57;101412.41;;;1.17;87.96
76132;BME280;64877;50.994;13.650;2023-01-23T05:31:23;101406.25;;;1.15;88.31
76132;BME280;64877;50.994;13.650;2023-01-23T05:33:48;101422.16;;;1.18;88.04
76132;BME280;64877;50.994;13.650;2023-01-23T05:36:14;101415.00;;;1.25;88.17
76132;BME280;64877;50.994;13.650;2023-01-23T05:38:39;101413.13;;;1.33;87.32
76132;BME280;64877;50.994;13.650;2023-01-23T05:41:04;101407.72;;;1.41;87.34
76132;BME280;64877;50.994;13.650;2023-01-23T05:43:30;101405.09;;;1.38;87.30
76132;BME280;64877;50.994;13.650;2023-01-23T05:45:58;101417.47;;;1.42;87.15
76132;BME280;64877;50.994;13.650;2023-01-23T05:48:24;101408.63;;;1.40;87.07
76132;BME280;64877;50.994;13.650;2023-01-23T05:50:49;101409.47;;;1.45;86.94
76132;BME280;64877;50.994;13.650;2023-01-23T05:53:15;101415.66;;;1.44;86.89
76132;BME280;64877;50.994;13.650;2023-01-23T05:55:40;101424.63;;;1.37;87.56
76132;BME280;64877;50.994;13.650;2023-01-23T05:58:06;101422.81;;;1.40;87.34
76132;BME280;64877;50.994;13.650;2023-01-23T06:00:31;101429.91;;;1.41;86.49
76132;BME280;64877;50.994;13.650;2023-01-23T06:02:57;101428.09;;;1.43;86.70
76132;BME280;64877;50.994;13.650;2023-01-23T06:05:22;101433.47;;;1.40;87.43
76132;BME280;64877;50.994;13.650;2023-01-23T06:07:48;101421.97;;;1.37;87.31
76132;BME280;64877;50.994;13.650;2023-01-23T06:10:13;101429.97;;;1.34;87.08
76132;BME280;64877;50.994;13.650;2023-01-23T06:12:39;101438.84;;;1.33;87.20
76132;BME280;64877;50.994;13.650;2023-01-23T06:15:04;101440.63;;;1.32;87.29
76132;BME280;64877;50.994;13.650;2023-01-23T06:17:30;101429.19;;;1.25;87.81
76132;BME280;64877;50.994;13.650;2023-01-23T06:19:55;101438.09;;;1.21;87.76
76132;BME280;64877;50.994;13.650;2023-01-23T06:22:22;101443.44;;;1.18;87.15
76132;BME280;64877;50.994;13.650;2023-01-23T06:24:47;101445.25;;;1.16;87.78
76132;BME280;64877;50.994;13.650;2023-01-23T06:27:13;101443.44;;;1.21;88.10
76132;BME280;64877;50.994;13.650;2023-01-23T06:29:38;101446.16;;;1.15;88.10
76132;BME280;64877;50.994;13.650;2023-01-23T06:32:04;101441.69;;;1.14;87.58
76132;BME280;64877;50.994;13.650;2023-01-23T06:34:29;101448.81;;;1.14;87.70
76132;BME280;64877;50.994;13.650;2023-01-23T06:36:55;101453.28;;;1.09;88.25
76132;BME280;64877;50.994;13.650;2023-01-23T06:39:20;101463.06;;;1.08;88.02
76132;BME280;64877;50.994;13.650;2023-01-23T06:41:46;101462.13;;;1.12;87.52
76132;BME280;64877;50.994;13.650;2023-01-23T06:44:11;101463.91;;;1.15;88.22
76132;BME280;64877;50.994;13.650;2023-01-23T06:46:37;101462.97;;;1.17;87.61
76132;BME280;64877;50.994;13.650;2023-01-23T06:49:03;101465.56;;;1.23;87.46
76132;BME280;64877;50.994;13.650;2023-01-23T06:51:29;101468.22;;;1.25;87.65
76132;BME280;64877;50.994;13.650;2023-01-23T06:53:54;101474.47;;;1.21;86.84
76132;BME280;64877;50.994;13.650;2023-01-23T06:56:20;101478.00;;;1.24;87.61
76132;BME280;64877;50.994;13.650;2023-01-23T06:58:46;101478.91;;;1.19;87.18
76132;BME280;64877;50.994;13.650;2023-01-23T07:01:15;101471.81;;;1.19;87.08
76132;BME280;64877;50.994;13.650;2023-01-23T07:03:41;101476.19;;;1.23;87.59
76132;BME280;64877;50.994;13.650;2023-01-23T07:06:09;101491.25;;;1.27;87.72
76132;BME280;64877;50.994;13.650;2023-01-23T07:08:35;101492.09;;;1.31;86.93
76132;BME280;64877;50.994;13.650;2023-01-23T07:11:01;101498.31;;;1.32;87.50
76132;BME280;64877;50.994;13.650;2023-01-23T07:13:27;101500.13;;;1.26;87.42
76132;BME280;64877;50.994;13.650;2023-01-23T07:15:53;101504.59;;;1.24;87.54
76132;BME280;64877;50.994;13.650;2023-01-23T07:18:18;101507.25;;;1.24;87.80
76132;BME280;64877;50.994;13.650;2023-01-23T07:20:44;101519.66;;;1.27;87.40
76132;BME280;64877;50.994;13.650;2023-01-23T07:23:10;101520.44;;;1.37;87.61
76132;BME280;64877;50.994;13.650;2023-01-23T07:25:36;101533.81;;;1.31;86.68
76132;BME280;64877;50.994;13.650;2023-01-23T07:28:02;101533.75;;;1.37;87.25
76132;BME280;64877;50.994;13.650;2023-01-23T07:30:27;101547.00;;;1.41;87.48
76132;BME280;64877;50.994;13.650;2023-01-23T07:32:53;101541.66;;;1.43;87.58
76132;BME280;64877;50.994;13.650;2023-01-23T07:35:19;101547.00;;;1.43;87.10
76132;BME280;64877;50.994;13.650;2023-01-23T07:37:45;101549.72;;;1.37;87.15
76132;BME280;64877;50.994;13.650;2023-01-23T07:40:11;101554.06;;;1.44;87.91
76132;BME280;64877;50.994;13.650;2023-01-23T07:42:36;101554.03;;;1.50;88.00
76132;BME280;64877;50.994;13.650;2023-01-23T07:45:02;101549.50;;;1.58;87.61
76132;BME280;64877;50.994;13.650;2023-01-23T07:47:27;101554.03;;;1.48;87.21
76132;BME280;64877;50.994;13.650;2023-01-23T07:49:52;101557.56;;;1.52;88.11
76132;BME280;64877;50.994;13.650;2023-01-23T07:52:18;101553.09;;;1.52;87.71
76132;BME280;64877;50.994;13.650;2023-01-23T07:54:43;101556.66;;;1.53;86.87
76132;BME280;64877;50.994;13.650;2023-01-23T07:57:08;101550.38;;;1.60;86.84
76132;BME280;64877;50.994;13.650;2023-01-23T07:59:34;101564.53;;;1.65;86.84
76132;BME280;64877;50.994;13.650;2023-01-23T08:01:59;101560.94;;;1.68;85.93
76132;BME280;64877;50.994;13.650;2023-01-23T08:04:25;101559.03;;;1.80;86.80
76132;BME280;64877;50.994;13.650;2023-01-23T08:06:50;101562.66;;;1.73;86.10
76132;BME280;64877;50.994;13.650;2023-01-23T08:09:15;101556.44;;;1.74;86.10
76132;BME280;64877;50.994;13.650;2023-01-23T08:11:41;101559.97;;;1.73;86.20
76132;BME280;64877;50.994;13.650;2023-01-23T08:14:06;101559.94;;;1.78;86.08
76132;BME280;64877;50.994;13.650;2023-01-23T08:16:31;101567.13;;;1.71;85.45
76132;BME280;64877;50.994;13.650;2023-01-23T08:18:57;101561.81;;;1.68;86.04
76132;BME280;64877;50.994;13.650;2023-01-23T08:21:22;101559.13;;;1.71;86.35
76132;BME280;64877;50.994;13.650;2023-01-23T08:23:50;101567.13;;;1.71;86.10
76132;BME280;64877;50.994;13.650;2023-01-23T08:26:16;101565.28;;;1.79;86.41
76132;BME280;64877;50.994;13.650;2023-01-23T08:28:43;101564.34;;;1.79;86.13
76132;BME280;64877;50.994;13.650;2023-01-23T08:31:10;101573.31;;;1.73;85.92
76132;BME280;64877;50.994;13.650;2023-01-23T08:33:37;101568.94;;;1.68;86.21
76132;BME280;64877;50.994;13.650;2023-01-23T08:36:03;101565.38;;;1.70;86.39
76132;BME280;64877;50.994;13.650;2023-01-23T08:38:30;101570.63;;;1.73;85.77
76132;BME280;64877;50.994;13.650;2023-01-23T08:40:58;101560.03;;;1.70;86.29
76132;BME280;64877;50.994;13.650;2023-01-23T08:43:23;101571.63;;;1.63;85.99
76132;BME280;64877;50.994;13.650;2023-01-23T08:45:54;101569.81;;;1.67;86.89
76132;BME280;64877;50.994;13.650;2023-01-23T08:48:21;101576.03;;;1.67;87.06
76132;BME280;64877;50.994;13.650;2023-01-23T08:50:47;101573.34;;;1.70;86.89
76132;BME280;64877;50.994;13.650;2023-01-23T08:53:13;101580.53;;;1.62;86.74
76132;BME280;64877;50.994;13.650;2023-01-23T08:55:38;101579.63;;;1.63;86.82
76132;BME280;64877;50.994;13.650;2023-01-23T08:58:05;101576.97;;;1.65;86.39
76132;BME280;64877;50.994;13.650;2023-01-23T09:00:32;101581.44;;;1.58;86.53
76132;BME280;64877;50.994;13.650;2023-01-23T09:03:03;101579.66;;;1.60;86.31
76132;BME280;64877;50.994;13.650;2023-01-23T09:05:29;101578.75;;;1.63;86.39
76132;BME280;64877;50.994;13.650;2023-01-23T09:07:56;101576.09;;;1.64;86.45
76132;BME280;64877;50.994;13.650;2023-01-23T09:10:22;101579.56;;;1.71;86.25
76132;BME280;64877;50.994;13.650;2023-01-23T09:12:52;101576.91;;;1.69;86.14
76132;BME280;64877;50.994;13.650;2023-01-23T09:15:18;101580.47;;;1.68;85.65
76132;BME280;64877;50.994;13.650;2023-01-23T09:17:43;101590.13;;;1.77;86.29
76132;BME280;64877;50.994;13.650;2023-01-23T09:20:09;101588.44;;;1.68;85.59
76132;BME280;64877;50.994;13.650;2023-01-23T09:22:35;101587.50;;;1.74;85.31
76132;BME280;64877;50.994;13.650;2023-01-23T09:25:00;101606.22;;;1.69;85.67
76132;BME280;64877;50.994;13.650;2023-01-23T09:27:26;101616.91;;;1.63;85.95
76132;BME280;64877;50.994;13.650;2023-01-23T09:29:51;101614.31;;;1.55;85.83
76132;BME280;64877;50.994;13.650;2023-01-23T09:32:17;101604.53;;;1.58;86.47
76132;BME280;64877;50.994;13.650;2023-01-23T09:34:42;101608.06;;;1.58;86.20
76132;BME280;64877;50.994;13.650;2023-01-23T09:37:08;101608.13;;;1.55;86.14
76132;BME280;64877;50.994;13.650;2023-01-23T09:39:34;101601.81;;;1.65;86.20
76132;BME280;64877;50.994;13.650;2023-01-23T09:42:03;101596.47;;;1.65;86.20
76132;BME280;64877;50.994;13.650;2023-01-23T09:44:40;101603.47;;;1.75;86.11
76132;BME280;64877;50.994;13.650;2023-01-23T09:47:17;101599.06;;;1.73;86.17
76132;BME280;64877;50.994;13.650;2023-01-23T09:49:46;101598.22;;;1.68;85.52
76132;BME280;64877;50.994;13.650;2023-01-23T09:52:22;101593.72;;;1.74;85.83
76132;BME280;64877;50.994;13.650;2023-01-23T09:54:54;101596.47;;;1.65;86.00
76132;BME280;64877;50.994;13.650;2023-01-23T09:57:29;101586.78;;;1.58;86.13
76132;BME280;64877;50.994;13.650;2023-01-23T10:00:05;101591.28;;;1.51;86.12
76132;BME280;64877;50.994;13.650;2023-01-23T10:02:31;101592.16;;;1.52;86.93
76132;BME280;64877;50.994;13.650;2023-01-23T10:04:57;101587.75;;;1.51;86.32
76132;BME280;64877;50.994;13.650;2023-01-23T10:07:43;101582.34;;;1.57;87.12
76132;BME280;64877;50.994;13.650;2023-01-23T10:13:09;101591.31;;;1.47;86.04
76132;BME280;64877;50.994;13.650;2023-01-23T10:18:29;101584.19;;;1.49;86.53
76132;BME280;64877;50.994;13.650;2023-01-23T10:26:17;101585.13;;;1.46;86.90
76132;BME280;64877;50.994;13.650;2023-01-23T10:28:45;101583.34;;;1.45;86.90
76132;BME280;64877;50.994;13.650;2023-01-23T10:31:26;101581.56;;;1.46;86.89
76132;BME280;64877;50.994;13.650;2023-01-23T10:36:35;101589.59;;;1.41;86.71
76132;BME280;64877;50.994;13.650;2023-01-23T10:39:07;101590.47;;;1.42;87.02
76132;BME280;64877;50.994;13.650;2023-01-23T10:41:34;101589.59;;;1.44;86.54
76132;BME280;64877;50.994;13.650;2023-01-23T10:44:00;101590.50;;;1.39;87.07
76132;BME280;64877;50.994;13.650;2023-01-23T10:46:34;101594.03;;;1.41;87.01
76132;BME280;64877;50.994;13.650;2023-01-23T10:49:06;101587.75;;;1.48;87.07
76132;BME280;64877;50.994;13.650;2023-01-23T10:56:35;101585.84;;;1.65;86.82
76132;BME280;64877;50.994;13.650;2023-01-23T10:59:04;101584.09;;;1.61;86.34
76132;BME280;64877;50.994;13.650;2023-01-23T11:01:33;101574.34;;;1.60;86.38
76132;BME280;64877;50.994;13.650;2023-01-23T11:04:20;101566.34;;;1.59;86.25
76132;BME280;64877;50.994;13.650;2023-01-23T11:07:12;101579.63;;;1.65;86.19
76132;BME280;64877;50.994;13.650;2023-01-23T11:09:51;101576.97;;;1.65;86.13
76132;BME280;64877;50.994;13.650;2023-01-23T11:14:45;101573.38;;;1.67;86.09
76132;BME280;64877;50.994;13.650;2023-01-23T11:17:20;101568.94;;;1.66;86.06
76132;BME280;64877;50.994;13.650;2023-01-23T11:19:48;101576.03;;;1.67;86.31
76132;BME280;64877;50.994;13.650;2023-01-23T11:24:48;101567.06;;;1.77;85.99
76132;BME280;64877;50.994;13.650;2023-01-23T11:32:19;101569.69;;;1.79;85.43
76132;BME280;64877;50.994;13.650;2023-01-23T11:34:49;101566.16;;;1.80;85.89
76132;BME280;64877;50.994;13.650;2023-01-23T11:37:27;101563.47;;;1.81;85.37
76132;BME280;64877;50.994;13.650;2023-01-23T11:40:02;101561.69;;;1.80;85.79
76132;BME280;64877;50.994;13.650;2023-01-23T11:42:30;101565.22;;;1.83;85.07
76132;BME280;64877;50.994;13.650;2023-01-23T11:44:57;101564.38;;;1.80;85.59
76132;BME280;64877;50.994;13.650;2023-01-23T11:47:54;101561.69;;;1.82;85.70
76132;BME280;64877;50.994;13.650;2023-01-23T11:50:49;101566.13;;;1.81;85.06
76132;BME280;64877;50.994;13.650;2023-01-23T11:53:45;101558.22;;;1.75;86.01
76132;BME280;64877;50.994;13.650;2023-01-23T12:02:12;101553.66;;;1.85;85.89
76132;BME280;64877;50.994;13.650;2023-01-23T12:07:25;101549.97;;;1.97;85.88
76132;BME280;64877;50.994;13.650;2023-01-23T12:09:58;101553.47;;;2.02;84.92
76132;BME280;64877;50.994;13.650;2023-01-23T12:26:17;101547.88;;;2.22;84.58
76132;BME280;64877;50.994;13.650;2023-01-23T12:29:25;101542.47;;;2.28;83.95
76132;BME280;64877;50.994;13.650;2023-01-23T12:35:49;101540.53;;;2.41;82.14
76132;BME280;64877;50.994;13.650;2023-01-23T12:44:13;101545.25;;;2.19;83.19
76132;BME280;64877;50.994;13.650;2023-01-23T12:46:49;101550.66;;;2.14;83.88
76132;BME280;64877;50.994;13.650;2023-01-23T12:49:46;101540.06;;;2.08;84.18
76132;BME280;64877;50.994;13.650;2023-01-23T12:55:03;101541.84;;;2.09;84.36
76132;BME280;64877;50.994;13.650;2023-01-23T12:57:31;101548.09;;;2.03;84.00
76132;BME280;64877;50.994;13.650;2023-01-23T13:00:36;101547.28;;;2.00;84.95
76132;BME280;64877;50.994;13.650;2023-01-23T13:08:33;101558.75;;;2.03;84.36
76132;BME280;64877;50.994;13.650;2023-01-23T13:11:05;101550.84;;;1.97;84.48
76132;BME280;64877;50.994;13.650;2023-01-23T13:13:50;101553.59;;;1.88;84.81
76132;BME280;64877;50.994;13.650;2023-01-23T13:16:18;101555.50;;;1.80;85.04
76132;BME280;64877;50.994;13.650;2023-01-23T13:18:57;101554.66;;;1.73;85.28
76132;BME280;64877;50.994;13.650;2023-01-23T13:22:03;101553.94;;;1.61;85.92
76132;BME280;64877;50.994;13.650;2023-01-23T13:27:53;101563.72;;;1.57;85.88
76132;BME280;64877;50.994;13.650;2023-01-23T13:33:48;101569.03;;;1.60;87.00
76132;BME280;64877;50.994;13.650;2023-01-23T13:36:12;101570.78;;;1.58;86.84
76132;BME280;64877;50.994;13.650;2023-01-23T13:38:38;101561.06;;;1.57;87.01
76132;BME280;64877;50.994;13.650;2023-01-23T13:52:08;101567.38;;;1.47;87.42
76132;BME280;64877;50.994;13.650;2023-01-23T13:54:54;101562.91;;;1.50;87.21
76132;BME280;64877;50.994;13.650;2023-01-23T13:57:38;101572.72;;;1.42;87.82
76132;BME280;64877;50.994;13.650;2023-01-23T14:00:10;101564.69;;;1.48;87.23
76132;BME280;64877;50.994;13.650;2023-01-23T14:02:39;101557.56;;;1.49;87.20
76132;BME280;64877;50.994;13.650;2023-01-23T14:05:31;101554.91;;;1.50;86.99
76132;BME280;64877;50.994;13.650;2023-01-23T14:08:02;101562.91;;;1.47;86.86
76132;BME280;64877;50.994;13.650;2023-01-23T14:10:30;101560.19;;;1.55;87.29
76132;BME280;64877;50.994;13.650;2023-01-23T14:13:10;101567.38;;;1.44;86.98
76132;BME280;64877;50.994;13.650;2023-01-23T14:15:46;101561.13;;;1.51;87.19
76132;BME280;64877;50.994;13.650;2023-01-23T14:21:15;101573.53;;;1.49;87.42
76132;BME280;64877;50.994;13.650;2023-01-23T14:23:42;101562.97;;;1.43;87.54
76132;BME280;64877;50.994;13.650;2023-01-23T14:26:15;101560.25;;;1.50;87.32
76132;BME280;64877;50.994;13.650;2023-01-23T14:29:03;101569.03;;;1.60;87.25
76132;BME280;64877;50.994;13.650;2023-01-23T14:31:35;101574.44;;;1.48;86.74
76132;BME280;64877;50.994;13.650;2023-01-23T14:34:11;101583.34;;;1.44;88.26
76132;BME280;64877;50.994;13.650;2023-01-23T14:36:43;101576.25;;;1.43;88.30